sensor_id;sensor_type;location;lat;lon;timestamp;P1;durP1;ratioP1;P2;durP2;ratioP2
962;SDS011;469;48.770;9.176;2023-01-29T00:01:28;9.98;;;5.30;;
962;SDS011;469;48.770;9.176;2023-01-29T00:03:56;10.18;;;5.60;;
962;SDS011;469;48.770;9.176;2023-01-29T00:06:23;9.52;;;5.38;;
962;SDS011;469;48.770;9.176;2023-01-29T00:08:50;9.52;;;5.40;;
962;SDS011;469;48.770;9.176;2023-01-29T00:11:17;10.45;;;5.65;;
962;SDS011;469;48.770;9.176;2023-01-29T00:13:45;10.75;;;5.50;;
962;SDS011;469;48.770;9.176;2023-01-29T00:16:12;9.98;;;5.05;;
962;SDS011;469;48.770;9.176;2023-01-29T00:18:41;9.50;;;5.03;;
962;SDS011;469;48.770;9.176;2023-01-29T00:21:08;11.02;;;5.85;;
962;SDS011;469;48.770;9.176;2023-01-29T00:23:36;12.07;;;5.43;;
962;SDS011;469;48.770;9.176;2023-01-29T00:26:03;11.68;;;6.35;;
962;SDS011;469;48.770;9.176;2023-01-29T00:28:30;11.32;;;5.15;;
962;SDS011;469;48.770;9.176;2023-01-29T00:30:57;14.80;;;6.32;;
962;SDS011;469;48.770;9.176;2023-01-29T00:33:24;9.73;;;6.05;;
962;SDS011;469;48.770;9.176;2023-01-29T00:35:52;11.50;;;6.43;;
962;SDS011;469;48.770;9.176;2023-01-29T00:38:19;15.68;;;5.53;;
962;SDS011;469;48.770;9.176;2023-01-29T00:40:46;14.23;;;6.00;;
962;SDS011;469;48.770;9.176;2023-01-29T00:43:31;8.98;;;5.72;;
962;SDS011;469;48.770;9.176;2023-01-29T00:46:16;13.00;;;5.82;;
962;SDS011;469;48.770;9.176;2023-01-29T00:48:43;8.30;;;5.00;;
962;SDS011;469;48.770;9.176;2023-01-29T00:51:11;9.85;;;5.20;;
962;SDS011;469;48.770;9.176;2023-01-29T00:53:38;10.25;;;5.35;;
962;SDS011;469;48.770;9.176;2023-01-29T00:56:05;11.23;;;5.35;;
962;SDS011;469;48.770;9.176;2023-01-29T00:58:32;13.63;;;6.00;;
962;SDS011;469;48.770;9.176;2023-01-29T01:01:00;11.73;;;5.65;;
962;SDS011;469;48.770;9.176;2023-01-29T01:03:28;15.50;;;6.38;;
962;SDS011;469;48.770;9.176;2023-01-29T01:06:03;11.40;;;6.18;;
962;SDS011;469;48.770;9.176;2023-01-29T01:08:32;10.07;;;5.40;;
962;SDS011;469;48.770;9.176;2023-01-29T01:11:32;17.90;;;6.80;;
962;SDS011;469;48.770;9.176;2023-01-29T01:13:59;12.90;;;6.25;;
962;SDS011;469;48.770;9.176;2023-01-29T01:16:26;14.95;;;6.32;;
962;SDS011;469;48.770;9.176;2023-01-29T01:18:53;12.80;;;5.25;;
962;SDS011;469;48.770;9.176;2023-01-29T01:21:20;11.40;;;5.25;;
962;SDS011;469;48.770;9.176;2023-01-29T01:23:48;8.68;;;4.78;;
962;SDS011;469;48.770;9.176;2023-01-29T01:26:16;9.75;;;5.40;;
962;SDS011;469;48.770;9.176;2023-01-29T01:28:43;9.10;;;5.20;;
962;SDS011;469;48.770;9.176;2023-01-29T01:31:10;9.73;;;5.40;;
962;SDS011;469;48.770;9.176;2023-01-29T01:33:38;12.55;;;5.97;;
962;SDS011;469;48.770;9.176;2023-01-29T01:36:05;9.57;;;5.53;;
962;SDS011;469;48.770;9.176;2023-01-29T01:38:33;11.45;;;5.90;;
962;SDS011;469;48.770;9.176;2023-01-29T01:41:02;10.48;;;5.70;;
962;SDS011;469;48.770;9.176;2023-01-29T01:46:12;11.05;;;5.05;;
962;SDS011;469;48.770;9.176;2023-01-29T01:48:39;13.18;;;6.18;;
962;SDS011;469;48.770;9.176;2023-01-29T01:51:06;10.40;;;5.70;;
962;SDS011;469;48.770;9.176;2023-01-29T01:53:34;12.55;;;5.95;;
962;SDS011;469;48.770;9.176;2023-01-29T01:56:05;10.80;;;5.85;;
962;SDS011;469;48.770;9.176;2023-01-29T01:58:34;14.63;;;6.47;;
962;SDS011;469;48.770;9.176;2023-01-29T02:01:02;12.93;;;5.78;;
962;SDS011;469;48.770;9.176;2023-01-29T02:03:30;9.27;;;5.20;;
962;SDS011;469;48.770;9.176;2023-01-29T02:06:18;11.35;;;5.07;;
962;SDS011;469;48.770;9.176;2023-01-29T02:09:03;12.30;;;5.22;;
962;SDS011;469;48.770;9.176;2023-01-29T02:11:51;8.40;;;4.75;;
962;SDS011;469;48.770;9.176;2023-01-29T02:14:18;8.98;;;4.90;;
962;SDS011;469;48.770;9.176;2023-01-29T02:16:45;10.38;;;5.22;;
962;SDS011;469;48.770;9.176;2023-01-29T02:19:14;16.85;;;5.75;;
962;SDS011;469;48.770;9.176;2023-01-29T02:21:56;10.63;;;5.00;;
962;SDS011;469;48.770;9.176;2023-01-29T02:27:28;8.40;;;4.90;;
962;SDS011;469;48.770;9.176;2023-01-29T02:30:00;9.27;;;5.32;;
962;SDS011;469;48.770;9.176;2023-01-29T02:32:29;12.40;;;6.78;;
962;SDS011;469;48.770;9.176;2023-01-29T02:35:01;10.95;;;5.28;;
962;SDS011;469;48.770;9.176;2023-01-29T02:37:47;9.48;;;5.20;;
962;SDS011;469;48.770;9.176;2023-01-29T02:40:18;14.80;;;6.10;;
962;SDS011;469;48.770;9.176;2023-01-29T02:42:52;14.45;;;6.82;;
962;SDS011;469;48.770;9.176;2023-01-29T02:45:26;17.88;;;5.50;;
962;SDS011;469;48.770;9.176;2023-01-29T02:47:58;13.93;;;6.10;;
962;SDS011;469;48.770;9.176;2023-01-29T02:50:27;17.13;;;6.72;;
962;SDS011;469;48.770;9.176;2023-01-29T02:52:56;14.60;;;6.45;;
962;SDS011;469;48.770;9.176;2023-01-29T02:55:24;12.95;;;5.45;;
962;SDS011;469;48.770;9.176;2023-01-29T02:57:55;11.20;;;5.90;;
962;SDS011;469;48.770;9.176;2023-01-29T03:00:25;15.10;;;5.68;;
962;SDS011;469;48.770;9.176;2023-01-29T03:02:54;16.90;;;6.63;;
962;SDS011;469;48.770;9.176;2023-01-29T03:05:23;14.95;;;6.45;;
962;SDS011;469;48.770;9.176;2023-01-29T03:07:54;21.67;;;7.03;;
962;SDS011;469;48.770;9.176;2023-01-29T03:10:23;14.50;;;6.30;;
962;SDS011;469;48.770;9.176;2023-01-29T03:12:53;12.50;;;5.95;;
962;SDS011;469;48.770;9.176;2023-01-29T03:15:21;10.82;;;5.40;;
962;SDS011;469;48.770;9.176;2023-01-29T03:17:54;11.25;;;5.97;;
962;SDS011;469;48.770;9.176;2023-01-29T03:20:23;13.70;;;6.03;;
962;SDS011;469;48.770;9.176;2023-01-29T03:22:54;12.25;;;5.57;;
962;SDS011;469;48.770;9.176;2023-01-29T03:25:22;11.35;;;5.53;;
962;SDS011;469;48.770;9.176;2023-01-29T03:28:08;8.88;;;4.90;;
962;SDS011;469;48.770;9.176;2023-01-29T03:30:54;8.93;;;5.18;;
962;SDS011;469;48.770;9.176;2023-01-29T03:33:41;11.48;;;4.72;;
962;SDS011;469;48.770;9.176;2023-01-29T03:36:10;10.25;;;5.45;;
962;SDS011;469;48.770;9.176;2023-01-29T03:38:39;9.68;;;4.80;;
962;SDS011;469;48.770;9.176;2023-01-29T03:41:07;7.05;;;4.28;;
962;SDS011;469;48.770;9.176;2023-01-29T03:43:38;12.23;;;4.63;;
962;SDS011;469;48.770;9.176;2023-01-29T03:46:09;9.40;;;4.57;;
962;SDS011;469;48.770;9.176;2023-01-29T03:48:44;8.27;;;5.05;;
962;SDS011;469;48.770;9.176;2023-01-29T03:51:16;11.82;;;5.93;;
962;SDS011;469;48.770;9.176;2023-01-29T03:53:48;11.70;;;5.57;;
962;SDS011;469;48.770;9.176;2023-01-29T03:56:20;10.15;;;5.80;;
962;SDS011;469;48.770;9.176;2023-01-29T03:58:52;8.95;;;5.18;;
962;SDS011;469;48.770;9.176;2023-01-29T04:01:23;9.45;;;4.70;;
962;SDS011;469;48.770;9.176;2023-01-29T04:03:54;9.55;;;4.78;;
962;SDS011;469;48.770;9.176;2023-01-29T04:06:23;6.30;;;4.30;;
962;SDS011;469;48.770;9.176;2023-01-29T04:08:53;9.63;;;4.70;;
962;SDS011;469;48.770;9.176;2023-01-29T04:11:22;9.20;;;4.68;;
962;SDS011;469;48.770;9.176;2023-01-29T04:13:50;8.98;;;4.25;;
962;SDS011;469;48.770;9.176;2023-01-29T04:16:19;8.77;;;5.65;;
962;SDS011;469;48.770;9.176;2023-01-29T04:18:48;10.18;;;5.13;;
962;SDS011;469;48.770;9.176;2023-01-29T04:21:17;7.57;;;4.53;;
962;SDS011;469;48.770;9.176;2023-01-29T04:23:44;8.68;;;4.75;;
962;SDS011;469;48.770;9.176;2023-01-29T04:26:20;7.82;;;4.65;;
962;SDS011;469;48.770;9.176;2023-01-29T04:28:57;7.88;;;4.35;;
962;SDS011;469;48.770;9.176;2023-01-29T04:31:25;13.70;;;5.57;;
962;SDS011;469;48.770;9.176;2023-01-29T04:33:57;9.75;;;4.90;;
962;SDS011;469;48.770;9.176;2023-01-29T04:36:29;10.30;;;5.30;;
962;SDS011;469;48.770;9.176;2023-01-29T04:39:02;10.23;;;4.90;;
962;SDS011;469;48.770;9.176;2023-01-29T04:41:32;13.05;;;5.43;;
962;SDS011;469;48.770;9.176;2023-01-29T04:44:01;14.23;;;4.80;;
962;SDS011;469;48.770;9.176;2023-01-29T04:46:32;9.68;;;4.80;;
962;SDS011;469;48.770;9.176;2023-01-29T04:49:05;10.93;;;5.18;;
962;SDS011;469;48.770;9.176;2023-01-29T04:51:38;11.15;;;4.22;;
962;SDS011;469;48.770;9.176;2023-01-29T04:54:11;14.40;;;5.05;;
962;SDS011;469;48.770;9.176;2023-01-29T04:56:43;10.30;;;5.18;;
962;SDS011;469;48.770;9.176;2023-01-29T04:59:13;9.63;;;4.93;;
962;SDS011;469;48.770;9.176;2023-01-29T05:01:45;14.35;;;5.38;;
962;SDS011;469;48.770;9.176;2023-01-29T05:04:17;9.40;;;5.60;;
962;SDS011;469;48.770;9.176;2023-01-29T05:07:04;8.52;;;5.00;;
962;SDS011;469;48.770;9.176;2023-01-29T05:09:41;8.45;;;4.47;;
962;SDS011;469;48.770;9.176;2023-01-29T05:12:11;9.43;;;4.95;;
962;SDS011;469;48.770;9.176;2023-01-29T05:14:46;11.30;;;5.10;;
962;SDS011;469;48.770;9.176;2023-01-29T05:17:21;10.05;;;4.55;;
962;SDS011;469;48.770;9.176;2023-01-29T05:19:58;15.23;;;5.63;;
962;SDS011;469;48.770;9.176;2023-01-29T05:22:43;9.48;;;4.93;;
962;SDS011;469;48.770;9.176;2023-01-29T05:25:19;7.85;;;4.40;;
962;SDS011;469;48.770;9.176;2023-01-29T05:27:54;9.55;;;4.95;;
962;SDS011;469;48.770;9.176;2023-01-29T05:30:40;10.00;;;4.95;;
962;SDS011;469;48.770;9.176;2023-01-29T05:33:14;10.30;;;5.15;;
962;SDS011;469;48.770;9.176;2023-01-29T05:35:48;13.50;;;5.63;;
962;SDS011;469;48.770;9.176;2023-01-29T05:38:44;9.55;;;4.63;;
962;SDS011;469;48.770;9.176;2023-01-29T05:41:15;20.50;;;5.57;;
962;SDS011;469;48.770;9.176;2023-01-29T05:43:48;9.05;;;4.85;;
962;SDS011;469;48.770;9.176;2023-01-29T05:46:17;8.45;;;4.55;;
962;SDS011;469;48.770;9.176;2023-01-29T05:48:50;9.65;;;5.45;;
962;SDS011;469;48.770;9.176;2023-01-29T05:51:18;12.00;;;5.32;;
962;SDS011;469;48.770;9.176;2023-01-29T05:53:51;8.75;;;4.63;;
962;SDS011;469;48.770;9.176;2023-01-29T05:56:38;10.18;;;4.60;;
962;SDS011;469;48.770;9.176;2023-01-29T05:59:08;12.02;;;5.05;;
962;SDS011;469;48.770;9.176;2023-01-29T06:01:35;8.75;;;4.75;;
962;SDS011;469;48.770;9.176;2023-01-29T06:04:11;10.40;;;4.85;;
962;SDS011;469;48.770;9.176;2023-01-29T06:06:56;9.80;;;5.20;;
962;SDS011;469;48.770;9.176;2023-01-29T06:09:26;13.02;;;5.40;;
962;SDS011;469;48.770;9.176;2023-01-29T06:11:58;8.93;;;4.80;;
962;SDS011;469;48.770;9.176;2023-01-29T06:14:25;10.13;;;4.85;;
962;SDS011;469;48.770;9.176;2023-01-29T06:17:11;15.48;;;5.38;;
962;SDS011;469;48.770;9.176;2023-01-29T06:19:42;9.05;;;5.22;;
962;SDS011;469;48.770;9.176;2023-01-29T06:22:12;9.95;;;5.30;;
962;SDS011;469;48.770;9.176;2023-01-29T06:30:54;9.50;;;4.40;;
962;SDS011;469;48.770;9.176;2023-01-29T06:33:37;13.05;;;4.97;;
962;SDS011;469;48.770;9.176;2023-01-29T06:36:13;10.45;;;4.60;;
962;SDS011;469;48.770;9.176;2023-01-29T06:38:59;6.50;;;4.00;;
962;SDS011;469;48.770;9.176;2023-01-29T06:41:28;9.77;;;4.88;;
962;SDS011;469;48.770;9.176;2023-01-29T06:44:16;10.85;;;5.45;;
962;SDS011;469;48.770;9.176;2023-01-29T06:46:50;11.07;;;4.97;;
962;SDS011;469;48.770;9.176;2023-01-29T06:49:25;8.77;;;4.75;;
962;SDS011;469;48.770;9.176;2023-01-29T06:54:48;7.80;;;4.60;;
962;SDS011;469;48.770;9.176;2023-01-29T06:57:27;7.75;;;4.57;;
962;SDS011;469;48.770;9.176;2023-01-29T06:59:58;10.63;;;4.93;;
962;SDS011;469;48.770;9.176;2023-01-29T07:02:28;8.77;;;4.75;;
962;SDS011;469;48.770;9.176;2023-01-29T07:05:06;9.98;;;5.00;;
962;SDS011;469;48.770;9.176;2023-01-29T07:07:40;8.93;;;4.75;;
962;SDS011;469;48.770;9.176;2023-01-29T07:10:07;12.10;;;4.90;;
962;SDS011;469;48.770;9.176;2023-01-29T07:12:41;12.77;;;4.90;;
962;SDS011;469;48.770;9.176;2023-01-29T07:15:10;7.47;;;4.18;;
962;SDS011;469;48.770;9.176;2023-01-29T07:20:54;7.47;;;4.40;;
962;SDS011;469;48.770;9.176;2023-01-29T07:23:25;8.88;;;4.90;;
962;SDS011;469;48.770;9.176;2023-01-29T07:25:59;7.75;;;4.65;;
962;SDS011;469;48.770;9.176;2023-01-29T07:28:26;8.45;;;4.55;;
962;SDS011;469;48.770;9.176;2023-01-29T07:30:54;9.77;;;5.07;;
962;SDS011;469;48.770;9.176;2023-01-29T07:33:21;10.65;;;5.05;;
962;SDS011;469;48.770;9.176;2023-01-29T07:35:50;6.53;;;4.13;;
962;SDS011;469;48.770;9.176;2023-01-29T07:38:17;7.32;;;4.63;;
962;SDS011;469;48.770;9.176;2023-01-29T07:40:44;13.63;;;5.68;;
962;SDS011;469;48.770;9.176;2023-01-29T07:43:11;8.95;;;4.57;;
962;SDS011;469;48.770;9.176;2023-01-29T07:45:38;9.23;;;4.93;;
962;SDS011;469;48.770;9.176;2023-01-29T07:48:06;8.55;;;5.20;;
962;SDS011;469;48.770;9.176;2023-01-29T07:50:35;13.27;;;5.50;;
962;SDS011;469;48.770;9.176;2023-01-29T07:53:04;9.52;;;4.70;;
962;SDS011;469;48.770;9.176;2023-01-29T07:55:31;10.15;;;5.10;;
962;SDS011;469;48.770;9.176;2023-01-29T07:57:59;13.50;;;5.25;;
962;SDS011;469;48.770;9.176;2023-01-29T08:00:27;9.93;;;5.07;;
962;SDS011;469;48.770;9.176;2023-01-29T08:03:00;11.35;;;4.68;;
962;SDS011;469;48.770;9.176;2023-01-29T08:05:27;11.60;;;5.25;;
962;SDS011;469;48.770;9.176;2023-01-29T08:07:54;14.63;;;4.95;;
962;SDS011;469;48.770;9.176;2023-01-29T08:10:23;8.90;;;4.80;;
962;SDS011;469;48.770;9.176;2023-01-29T08:12:52;12.10;;;5.32;;
962;SDS011;469;48.770;9.176;2023-01-29T08:15:19;11.50;;;5.32;;
962;SDS011;469;48.770;9.176;2023-01-29T08:17:46;10.65;;;5.15;;
962;SDS011;469;48.770;9.176;2023-01-29T08:20:14;10.00;;;5.40;;
962;SDS011;469;48.770;9.176;2023-01-29T08:22:41;13.13;;;5.38;;
962;SDS011;469;48.770;9.176;2023-01-29T08:25:08;10.15;;;5.00;;
962;SDS011;469;48.770;9.176;2023-01-29T08:27:36;8.75;;;4.70;;
962;SDS011;469;48.770;9.176;2023-01-29T08:30:04;10.65;;;5.20;;
962;SDS011;469;48.770;9.176;2023-01-29T08:32:32;8.23;;;4.95;;
962;SDS011;469;48.770;9.176;2023-01-29T08:34:59;12.45;;;5.70;;
962;SDS011;469;48.770;9.176;2023-01-29T08:37:28;11.65;;;5.53;;
962;SDS011;469;48.770;9.176;2023-01-29T08:39:55;13.32;;;5.50;;
962;SDS011;469;48.770;9.176;2023-01-29T08:42:22;10.60;;;4.80;;
962;SDS011;469;48.770;9.176;2023-01-29T08:44:50;8.48;;;4.90;;
962;SDS011;469;48.770;9.176;2023-01-29T08:47:17;9.70;;;5.35;;
962;SDS011;469;48.770;9.176;2023-01-29T08:49:44;10.68;;;5.43;;
962;SDS011;469;48.770;9.176;2023-01-29T08:52:11;17.15;;;5.90;;
962;SDS011;469;48.770;9.176;2023-01-29T08:54:38;10.30;;;5.60;;
962;SDS011;469;48.770;9.176;2023-01-29T08:57:05;8.70;;;4.90;;
962;SDS011;469;48.770;9.176;2023-01-29T08:59:32;13.63;;;5.97;;
962;SDS011;469;48.770;9.176;2023-01-29T09:02:01;10.82;;;5.32;;
962;SDS011;469;48.770;9.176;2023-01-29T09:04:28;7.75;;;4.82;;
962;SDS011;469;48.770;9.176;2023-01-29T09:06:55;15.77;;;5.95;;
962;SDS011;469;48.770;9.176;2023-01-29T09:09:22;10.15;;;5.70;;
962;SDS011;469;48.770;9.176;2023-01-29T09:11:49;12.90;;;5.60;;
962;SDS011;469;48.770;9.176;2023-01-29T09:14:16;17.40;;;6.53;;
962;SDS011;469;48.770;9.176;2023-01-29T09:16:43;12.38;;;5.85;;
962;SDS011;469;48.770;9.176;2023-01-29T09:19:11;12.45;;;6.00;;
962;SDS011;469;48.770;9.176;2023-01-29T09:21:38;14.65;;;5.65;;
962;SDS011;469;48.770;9.176;2023-01-29T09:24:05;11.60;;;6.25;;
962;SDS011;469;48.770;9.176;2023-01-29T09:26:32;15.75;;;6.25;;
962;SDS011;469;48.770;9.176;2023-01-29T09:28:59;12.30;;;6.05;;
962;SDS011;469;48.770;9.176;2023-01-29T09:31:27;10.88;;;5.90;;
962;SDS011;469;48.770;9.176;2023-01-29T09:33:54;9.57;;;5.38;;
962;SDS011;469;48.770;9.176;2023-01-29T09:36:22;10.68;;;5.97;;
962;SDS011;469;48.770;9.176;2023-01-29T09:38:49;10.32;;;5.97;;
962;SDS011;469;48.770;9.176;2023-01-29T09:41:20;10.38;;;5.90;;
962;SDS011;469;48.770;9.176;2023-01-29T09:43:52;10.52;;;6.00;;
962;SDS011;469;48.770;9.176;2023-01-29T09:46:20;16.58;;;6.10;;
962;SDS011;469;48.770;9.176;2023-01-29T09:48:49;11.60;;;6.10;;
962;SDS011;469;48.770;9.176;2023-01-29T09:51:24;15.30;;;6.70;;
962;SDS011;469;48.770;9.176;2023-01-29T09:53:55;12.02;;;5.45;;
962;SDS011;469;48.770;9.176;2023-01-29T09:56:25;11.40;;;6.10;;
962;SDS011;469;48.770;9.176;2023-01-29T09:58:53;16.55;;;6.75;;
962;SDS011;469;48.770;9.176;2023-01-29T10:01:23;12.50;;;7.10;;
962;SDS011;469;48.770;9.176;2023-01-29T10:04:03;13.30;;;6.90;;
962;SDS011;469;48.770;9.176;2023-01-29T10:06:40;10.68;;;6.25;;
962;SDS011;469;48.770;9.176;2023-01-29T10:12:09;14.60;;;6.40;;
962;SDS011;469;48.770;9.176;2023-01-29T10:14:38;14.52;;;6.50;;
962;SDS011;469;48.770;9.176;2023-01-29T10:17:10;11.68;;;7.40;;
962;SDS011;469;48.770;9.176;2023-01-29T10:19:51;13.57;;;7.13;;
962;SDS011;469;48.770;9.176;2023-01-29T10:22:28;14.20;;;6.68;;
962;SDS011;469;48.770;9.176;2023-01-29T10:25:02;11.02;;;6.03;;
962;SDS011;469;48.770;9.176;2023-01-29T10:27:32;10.88;;;6.10;;
962;SDS011;469;48.770;9.176;2023-01-29T10:29:59;15.00;;;6.40;;
962;SDS011;469;48.770;9.176;2023-01-29T10:32:28;15.05;;;6.65;;
962;SDS011;469;48.770;9.176;2023-01-29T10:34:56;11.45;;;6.45;;
962;SDS011;469;48.770;9.176;2023-01-29T10:37:30;12.40;;;7.03;;
962;SDS011;469;48.770;9.176;2023-01-29T10:40:00;11.07;;;6.55;;
962;SDS011;469;48.770;9.176;2023-01-29T10:42:29;13.00;;;7.03;;
962;SDS011;469;48.770;9.176;2023-01-29T10:45:01;14.40;;;7.32;;
962;SDS011;469;48.770;9.176;2023-01-29T10:47:36;12.38;;;6.47;;
962;SDS011;469;48.770;9.176;2023-01-29T10:50:12;13.02;;;6.22;;
962;SDS011;469;48.770;9.176;2023-01-29T10:52:44;11.20;;;6.05;;
962;SDS011;469;48.770;9.176;2023-01-29T10:55:17;9.93;;;5.80;;
962;SDS011;469;48.770;9.176;2023-01-29T10:57:49;12.18;;;6.45;;
962;SDS011;469;48.770;9.176;2023-01-29T11:00:20;13.07;;;6.03;;
962;SDS011;469;48.770;9.176;2023-01-29T11:02:48;11.68;;;5.95;;
962;SDS011;469;48.770;9.176;2023-01-29T11:05:18;12.40;;;7.10;;
962;SDS011;469;48.770;9.176;2023-01-29T11:07:46;10.43;;;5.88;;
962;SDS011;469;48.770;9.176;2023-01-29T11:10:19;15.30;;;6.63;;
962;SDS011;469;48.770;9.176;2023-01-29T11:12:49;11.57;;;5.97;;
962;SDS011;469;48.770;9.176;2023-01-29T11:15:18;10.95;;;6.13;;
962;SDS011;469;48.770;9.176;2023-01-29T11:18:03;11.07;;;6.47;;
962;SDS011;469;48.770;9.176;2023-01-29T11:20:38;16.80;;;7.13;;
962;SDS011;469;48.770;9.176;2023-01-29T11:23:05;13.07;;;7.05;;
962;SDS011;469;48.770;9.176;2023-01-29T11:25:50;10.60;;;6.53;;
962;SDS011;469;48.770;9.176;2023-01-29T11:31:03;12.18;;;6.40;;
962;SDS011;469;48.770;9.176;2023-01-29T11:33:31;20.17;;;6.18;;
962;SDS011;469;48.770;9.176;2023-01-29T11:35:58;12.57;;;7.53;;
962;SDS011;469;48.770;9.176;2023-01-29T11:38:26;14.13;;;6.50;;
962;SDS011;469;48.770;9.176;2023-01-29T11:41:03;10.23;;;5.82;;
962;SDS011;469;48.770;9.176;2023-01-29T11:43:31;13.35;;;6.63;;
962;SDS011;469;48.770;9.176;2023-01-29T11:45:59;13.15;;;6.88;;
962;SDS011;469;48.770;9.176;2023-01-29T11:48:32;13.30;;;7.43;;
962;SDS011;469;48.770;9.176;2023-01-29T11:50:59;13.57;;;6.80;;
962;SDS011;469;48.770;9.176;2023-01-29T11:53:32;9.93;;;6.13;;
962;SDS011;469;48.770;9.176;2023-01-29T11:56:00;12.93;;;6.82;;
962;SDS011;469;48.770;9.176;2023-01-29T11:58:29;13.70;;;7.47;;
962;SDS011;469;48.770;9.176;2023-01-29T12:00:57;12.00;;;7.22;;
962;SDS011;469;48.770;9.176;2023-01-29T12:03:28;11.68;;;6.75;;
962;SDS011;469;48.770;9.176;2023-01-29T12:05:58;14.15;;;6.70;;
962;SDS011;469;48.770;9.176;2023-01-29T12:08:27;16.75;;;6.95;;
962;SDS011;469;48.770;9.176;2023-01-29T12:11:05;11.60;;;6.85;;
962;SDS011;469;48.770;9.176;2023-01-29T12:13:33;13.43;;;5.63;;
962;SDS011;469;48.770;9.176;2023-01-29T12:16:05;17.67;;;7.15;;
962;SDS011;469;48.770;9.176;2023-01-29T12:18:35;20.10;;;7.13;;
962;SDS011;469;48.770;9.176;2023-01-29T12:21:09;10.57;;;6.82;;
962;SDS011;469;48.770;9.176;2023-01-29T12:23:38;10.63;;;6.20;;
962;SDS011;469;48.770;9.176;2023-01-29T12:26:08;11.25;;;6.80;;
962;SDS011;469;48.770;9.176;2023-01-29T12:28:45;10.82;;;7.15;;
962;SDS011;469;48.770;9.176;2023-01-29T12:31:20;15.50;;;7.35;;
962;SDS011;469;48.770;9.176;2023-01-29T12:33:50;12.30;;;6.60;;
962;SDS011;469;48.770;9.176;2023-01-29T12:36:20;17.33;;;8.05;;
962;SDS011;469;48.770;9.176;2023-01-29T12:38:49;10.88;;;6.50;;
962;SDS011;469;48.770;9.176;2023-01-29T12:41:21;12.55;;;6.82;;
962;SDS011;469;48.770;9.176;2023-01-29T12:43:51;15.32;;;6.78;;
962;SDS011;469;48.770;9.176;2023-01-29T12:46:21;16.85;;;7.47;;
962;SDS011;469;48.770;9.176;2023-01-29T12:48:49;13.70;;;7.80;;
962;SDS011;469;48.770;9.176;2023-01-29T12:51:17;13.65;;;7.75;;
962;SDS011;469;48.770;9.176;2023-01-29T12:53:49;13.98;;;7.20;;
962;SDS011;469;48.770;9.176;2023-01-29T12:56:18;12.73;;;6.65;;
962;SDS011;469;48.770;9.176;2023-01-29T12:58:49;12.82;;;6.95;;
962;SDS011;469;48.770;9.176;2023-01-29T13:01:19;16.05;;;7.05;;
962;SDS011;469;48.770;9.176;2023-01-29T13:03:50;13.55;;;7.13;;
962;SDS011;469;48.770;9.176;2023-01-29T13:06:19;13.00;;;7.00;;
962;SDS011;469;48.770;9.176;2023-01-29T13:08:49;12.93;;;6.65;;
962;SDS011;469;48.770;9.176;2023-01-29T13:11:20;13.05;;;6.97;;
962;SDS011;469;48.770;9.176;2023-01-29T13:13:48;16.67;;;8.00;;
962;SDS011;469;48.770;9.176;2023-01-29T13:16:18;16.50;;;7.70;;
962;SDS011;469;48.770;9.176;2023-01-29T13:18:48;13.23;;;6.72;;
962;SDS011;469;48.770;9.176;2023-01-29T13:21:17;14.25;;;6.60;;
962;SDS011;469;48.770;9.176;2023-01-29T13:23:44;12.48;;;6.50;;
962;SDS011;469;48.770;9.176;2023-01-29T13:26:17;11.40;;;6.20;;
962;SDS011;469;48.770;9.176;2023-01-29T13:28:59;11.52;;;5.97;;
962;SDS011;469;48.770;9.176;2023-01-29T13:31:51;14.32;;;6.57;;
962;SDS011;469;48.770;9.176;2023-01-29T13:34:45;13.50;;;7.40;;
962;SDS011;469;48.770;9.176;2023-01-29T13:37:35;16.95;;;6.90;;
962;SDS011;469;48.770;9.176;2023-01-29T13:40:26;11.95;;;6.97;;
962;SDS011;469;48.770;9.176;2023-01-29T13:43:10;12.20;;;6.63;;
962;SDS011;469;48.770;9.176;2023-01-29T13:45:55;13.88;;;6.50;;
962;SDS011;469;48.770;9.176;2023-01-29T13:51:28;20.92;;;7.68;;
962;SDS011;469;48.770;9.176;2023-01-29T13:54:02;15.27;;;7.53;;
962;SDS011;469;48.770;9.176;2023-01-29T13:59:53;11.80;;;6.95;;
962;SDS011;469;48.770;9.176;2023-01-29T14:02:45;14.05;;;7.18;;
962;SDS011;469;48.770;9.176;2023-01-29T14:05:44;14.85;;;7.50;;
962;SDS011;469;48.770;9.176;2023-01-29T14:08:52;14.75;;;7.65;;
962;SDS011;469;48.770;9.176;2023-01-29T14:11:49;13.38;;;6.90;;
962;SDS011;469;48.770;9.176;2023-01-29T14:26:32;13.20;;;6.53;;
962;SDS011;469;48.770;9.176;2023-01-29T14:29:39;14.20;;;7.07;;
962;SDS011;469;48.770;9.176;2023-01-29T14:35:31;12.48;;;7.00;;
962;SDS011;469;48.770;9.176;2023-01-29T14:41:40;13.98;;;6.53;;
962;SDS011;469;48.770;9.176;2023-01-29T14:47:09;12.93;;;7.00;;
962;SDS011;469;48.770;9.176;2023-01-29T14:50:05;13.40;;;7.20;;
962;SDS011;469;48.770;9.176;2023-01-29T14:53:10;13.55;;;6.15;;
962;SDS011;469;48.770;9.176;2023-01-29T14:56:02;11.70;;;6.07;;
962;SDS011;469;48.770;9.176;2023-01-29T15:01:56;18.25;;;7.40;;
962;SDS011;469;48.770;9.176;2023-01-29T15:10:54;13.73;;;7.20;;
962;SDS011;469;48.770;9.176;2023-01-29T15:13:43;18.20;;;6.28;;
962;SDS011;469;48.770;9.176;2023-01-29T15:19:22;14.70;;;6.65;;
962;SDS011;469;48.770;9.176;2023-01-29T15:25:06;22.30;;;6.97;;
962;SDS011;469;48.770;9.176;2023-01-29T15:28:03;14.75;;;7.20;;
962;SDS011;469;48.770;9.176;2023-01-29T15:30:52;14.50;;;7.60;;
962;SDS011;469;48.770;9.176;2023-01-29T15:47:50;11.35;;;6.82;;
962;SDS011;469;48.770;9.176;2023-01-29T15:53:12;11.50;;;6.55;;
962;SDS011;469;48.770;9.176;2023-01-29T15:55:58;14.02;;;7.05;;
962;SDS011;469;48.770;9.176;2023-01-29T15:58:35;14.05;;;6.97;;
962;SDS011;469;48.770;9.176;2023-01-29T16:01:24;15.82;;;7.43;;
962;SDS011;469;48.770;9.176;2023-01-29T16:09:58;17.60;;;8.30;;
962;SDS011;469;48.770;9.176;2023-01-29T16:18:04;18.92;;;7.85;;
962;SDS011;469;48.770;9.176;2023-01-29T16:24:17;16.85;;;7.40;;
962;SDS011;469;48.770;9.176;2023-01-29T16:27:21;14.48;;;7.65;;
962;SDS011;469;48.770;9.176;2023-01-29T16:30:14;17.52;;;7.78;;
962;SDS011;469;48.770;9.176;2023-01-29T16:33:12;17.80;;;7.65;;
962;SDS011;469;48.770;9.176;2023-01-29T16:39:20;14.75;;;6.90;;
962;SDS011;469;48.770;9.176;2023-01-29T16:47:47;19.95;;;8.73;;
962;SDS011;469;48.770;9.176;2023-01-29T16:50:37;19.00;;;9.07;;
962;SDS011;469;48.770;9.176;2023-01-29T16:53:14;21.67;;;8.85;;
962;SDS011;469;48.770;9.176;2023-01-29T16:56:03;20.77;;;9.68;;
962;SDS011;469;48.770;9.176;2023-01-29T17:01:53;25.42;;;9.43;;
962;SDS011;469;48.770;9.176;2023-01-29T17:13:42;17.55;;;9.13;;
962;SDS011;469;48.770;9.176;2023-01-29T17:16:32;22.50;;;8.85;;
962;SDS011;469;48.770;9.176;2023-01-29T17:19:17;19.52;;;9.60;;
962;SDS011;469;48.770;9.176;2023-01-29T17:22:17;15.65;;;8.20;;
962;SDS011;469;48.770;9.176;2023-01-29T17:27:46;20.20;;;8.25;;
962;SDS011;469;48.770;9.176;2023-01-29T17:30:24;23.02;;;9.45;;
962;SDS011;469;48.770;9.176;2023-01-29T17:33:14;24.92;;;9.65;;
962;SDS011;469;48.770;9.176;2023-01-29T17:35:55;23.25;;;9.05;;
962;SDS011;469;48.770;9.176;2023-01-29T17:38:29;21.73;;;9.10;;
962;SDS011;469;48.770;9.176;2023-01-29T17:41:02;16.98;;;8.30;;
962;SDS011;469;48.770;9.176;2023-01-29T17:43:38;22.92;;;9.73;;
962;SDS011;469;48.770;9.176;2023-01-29T17:46:22;19.73;;;8.63;;
962;SDS011;469;48.770;9.176;2023-01-29T17:48:51;28.17;;;8.90;;
962;SDS011;469;48.770;9.176;2023-01-29T17:51:34;23.70;;;9.52;;
962;SDS011;469;48.770;9.176;2023-01-29T17:54:13;16.27;;;8.38;;
962;SDS011;469;48.770;9.176;2023-01-29T17:56:53;17.52;;;8.75;;
962;SDS011;469;48.770;9.176;2023-01-29T17:59:22;21.67;;;8.95;;
962;SDS011;469;48.770;9.176;2023-01-29T18:02:05;20.60;;;9.23;;
962;SDS011;469;48.770;9.176;2023-01-29T18:04:51;24.00;;;9.00;;
962;SDS011;469;48.770;9.176;2023-01-29T18:07:25;22.05;;;9.50;;
962;SDS011;469;48.770;9.176;2023-01-29T18:10:14;23.42;;;9.57;;
962;SDS011;469;48.770;9.176;2023-01-29T18:13:03;23.70;;;8.55;;
962;SDS011;469;48.770;9.176;2023-01-29T18:15:43;23.67;;;9.20;;
962;SDS011;469;48.770;9.176;2023-01-29T18:18:30;17.95;;;8.23;;